Swinomish — WC5223 — position and weather

sailwx.info

Track history (hours):
 
Tides and Currents Weather Stations Pressure Air Temp Water Temp Dewpoint Dewpoint Depression Visibility Wind Speed Wind Dir Waves Ship Positions

Swinomish

Owner: DUNLAP TOWING CO, LA CONNER, WA. More information available from US FCC via Universal Licensing System and Coast Guard Vessel Documentation Center.

Last reported at 2016-Aug-25 18:06 UTC. Time now 2016-Aug-25 20:11 UTC.
Position N 48°24' W 122°30'.

Length 15 m; draft 3.5 m.

Type: Tug. MMSI: 366972050.

Date/timePositionNaut miles runAvg speedWind from/ knotsBaromVisibWave heightAir tempDewpointWater temp
2016-Aug-25 18:06N 48°24' W 122°30'0 0.0
2016-Aug-25 17:21N 48°24' W 122°30'0 0.0
2016-Aug-25 16:32N 48°24' W 122°30'0 0.0
2016-Aug-25 15:34N 48°24' W 122°30'0 0.0
2016-Aug-25 14:34N 48°24' W 122°30'0 0.0
2016-Aug-25 13:33N 48°24' W 122°30'0 0.0
2016-Aug-25 12:32N 48°24' W 122°30'0 0.0
2016-Aug-25 11:32N 48°24' W 122°30'0 0.0
2016-Aug-25 10:34N 48°24' W 122°30'0 0.0
2016-Aug-25 09:33N 48°24' W 122°30'0 0.0
2016-Aug-25 07:33N 48°24' W 122°30'0 0.0
2016-Aug-25 04:06N 48°24' W 122°30'0 0.0
2016-Aug-25 03:33N 48°24' W 122°30'0 0.0
2016-Aug-25 02:31N 48°24' W 122°30'0 0.0
2016-Aug-25 01:34N 48°24' W 122°30'0 0.0
2016-Aug-25 00:30N 48°24' W 122°30'1 1.3
2016-Aug-24 23:33N 48°23' W 122°30'4 3.8
2016-Aug-24 22:32N 48°19' W 122°30'8 7.3
2016-Aug-24 21:23N 48°11' W 122°33'7 7.2
2016-Aug-24 20:25N 48°05' W 122°27'7 7.6
2016-Aug-24 19:30N 48°01' W 122°18'4 4.1
2016-Aug-24 18:33N 47°59' W 122°13'0 0.0
2016-Aug-24 17:34N 47°59' W 122°13'0 0.0
2016-Aug-24 16:34N 47°59' W 122°13'0 0.0
2016-Aug-24 15:34N 47°59' W 122°13'0 0.0
2016-Aug-24 14:34N 47°59' W 122°13'0 0.0
2016-Aug-24 13:34N 47°59' W 122°13'0 0.0
2016-Aug-24 12:33N 47°59' W 122°13'0 0.0
2016-Aug-24 11:34N 47°59' W 122°13'0 0.0
2016-Aug-24 10:34N 47°59' W 122°13'0 0.0
2016-Aug-24 09:34N 47°59' W 122°13'0 0.0
2016-Aug-24 08:34N 47°59' W 122°13'0 0.0
2016-Aug-24 07:34N 47°59' W 122°13'0 0.0
2016-Aug-24 06:34N 47°59' W 122°13'0 0.0
2016-Aug-24 04:33N 47°59' W 122°13'0 0.0
2016-Aug-24 03:33N 47°59' W 122°13'0 0.0
2016-Aug-24 02:34N 47°59' W 122°13'0 0.0
2016-Aug-24 01:34N 47°59' W 122°13'0 0.0
2016-Aug-24 00:33N 47°59' W 122°13'0 0.0
2016-Aug-23 23:33N 47°59' W 122°13'0 0.0
2016-Aug-23 22:34N 47°59' W 122°13'0 0.0
2016-Aug-23 21:33N 47°59' W 122°13'0 0.0
2016-Aug-23 20:33N 47°59' W 122°13'0 0.0
2016-Aug-23 19:33N 47°59' W 122°13'0 0.0
2016-Aug-23 18:34N 47°59' W 122°13'0 0.0
2016-Aug-23 17:33N 47°59' W 122°13'0 0.0
2016-Aug-23 16:33N 47°59' W 122°13'0 0.0
2016-Aug-23 15:33N 47°59' W 122°13'0 0.0
2016-Aug-23 14:33N 47°59' W 122°13'0 0.0
2016-Aug-23 13:33N 47°59' W 122°13'0 0.0
2016-Aug-23 12:31N 47°59' W 122°13'0 0.0
2016-Aug-23 11:33N 47°59' W 122°13'0 0.0
2016-Aug-23 10:34N 47°59' W 122°13'0 0.0
2016-Aug-23 09:33N 47°59' W 122°13'0 0.0
2016-Aug-23 08:33N 47°59' W 122°13'0 0.0
2016-Aug-23 07:34N 47°59' W 122°13'0 0.0
2016-Aug-23 06:33N 47°59' W 122°13'0 0.0
2016-Aug-23 05:33N 47°59' W 122°13'0 0.0
2016-Aug-23 04:34N 47°59' W 122°13'0 0.0
2016-Aug-23 03:33N 47°59' W 122°13'0 0.0
2016-Aug-23 02:33N 47°59' W 122°13'0 0.0
2016-Aug-23 01:33N 47°59' W 122°13'0 0.0
2016-Aug-23 00:31N 47°59' W 122°13'0 0.0
2016-Aug-22 23:34N 47°59' W 122°13'0 0.0
2016-Aug-22 22:34N 47°59' W 122°13'0 0.0
2016-Aug-22 21:34N 47°59' W 122°13'0 0.0
2016-Aug-22 20:33N 47°59' W 122°13'0 0.0
2016-Aug-22 19:33N 47°59' W 122°13'0 0.0
2016-Aug-22 18:33N 47°59' W 122°13'0 0.0
2016-Aug-22 17:33N 47°59' W 122°13'0 0.0
2016-Aug-22 16:33N 47°59' W 122°13'0 0.0
2016-Aug-22 15:33N 47°59' W 122°13'0 0.0
2016-Aug-22 14:33N 47°59' W 122°13'0 0.0
2016-Aug-22 13:34N 47°59' W 122°13'0 0.0
2016-Aug-22 12:33N 47°59' W 122°13'0 0.0
2016-Aug-22 11:33N 47°59' W 122°13'0 0.0
2016-Aug-22 10:33N 47°59' W 122°13'0 0.0
2016-Aug-22 09:33N 47°59' W 122°13'0 0.0
2016-Aug-22 08:33N 47°59' W 122°13'0 0.0
2016-Aug-22 07:34N 47°59' W 122°13'0 0.0
2016-Aug-22 06:34N 47°59' W 122°13'0 0.0
2016-Aug-22 05:33N 47°59' W 122°13'0 0.0
2016-Aug-22 04:34N 47°59' W 122°13'0 0.0
2016-Aug-22 03:34N 47°59' W 122°13'0 0.0
2016-Aug-22 02:33N 47°59' W 122°13'0 0.0
2016-Aug-22 01:33N 47°59' W 122°13'0 0.0
2016-Aug-22 00:34N 47°59' W 122°13'0 0.0
2016-Aug-21 23:33N 47°59' W 122°13'0 0.0
2016-Aug-21 22:33N 47°59' W 122°13'0 0.0
2016-Aug-21 21:34N 47°59' W 122°13'0 0.0
2016-Aug-21 20:33N 47°59' W 122°13'0 0.0
2016-Aug-21 19:34N 47°59' W 122°13'0 0.0
2016-Aug-21 18:34N 47°59' W 122°13'0 0.0
2016-Aug-21 17:34N 47°59' W 122°13'0 0.0
2016-Aug-21 16:33N 47°59' W 122°13'0 0.0
2016-Aug-21 15:34N 47°59' W 122°13'0 0.0
2016-Aug-21 14:33N 47°59' W 122°13'0 0.0
2016-Aug-21 13:34N 47°59' W 122°13'0 0.0
2016-Aug-21 12:34N 47°59' W 122°13'0 0.0
2016-Aug-21 11:33N 47°59' W 122°13'0 0.0
2016-Aug-21 10:33N 47°59' W 122°13'0 0.0
2016-Aug-21 09:33N 47°59' W 122°13'0 0.0
2016-Aug-21 08:34N 47°59' W 122°13'0 0.0
2016-Aug-21 07:34N 47°59' W 122°13'0 0.0
2016-Aug-21 06:34N 47°59' W 122°13'0 0.0
2016-Aug-21 05:34N 47°59' W 122°13'0 0.0
2016-Aug-21 04:33N 47°59' W 122°13'0 0.0
2016-Aug-21 03:34N 47°59' W 122°13'0 0.0
2016-Aug-21 02:33N 47°59' W 122°13'0 0.0
2016-Aug-21 01:33N 47°59' W 122°13'0 0.0
2016-Aug-21 00:34N 47°59' W 122°13'0 0.0
2016-Aug-20 23:34N 47°59' W 122°13'0 0.0
2016-Aug-20 22:34N 47°59' W 122°13'0 0.0
2016-Aug-20 21:34N 47°59' W 122°13'0 0.0
2016-Aug-20 20:34N 47°59' W 122°13'0 0.0
2016-Aug-20 19:33N 47°59' W 122°13'0 0.0
2016-Aug-20 18:34N 47°59' W 122°13'0 0.0
2016-Aug-20 17:34N 47°59' W 122°13'0 0.0
2016-Aug-20 16:33N 47°59' W 122°13'0 0.0
2016-Aug-20 15:34N 47°59' W 122°13'0 0.0
2016-Aug-20 14:33N 47°59' W 122°13'0 0.0
2016-Aug-20 13:33N 47°59' W 122°13'0 0.0
2016-Aug-20 12:34N 47°59' W 122°13'0 0.0
2016-Aug-20 11:33N 47°59' W 122°13'0 0.0
2016-Aug-20 10:34N 47°59' W 122°13'0 0.0
2016-Aug-20 09:33N 47°59' W 122°13'0 0.0
2016-Aug-20 08:33N 47°59' W 122°13'0 0.0
2016-Aug-20 07:34N 47°59' W 122°13'0 0.0
2016-Aug-20 06:33N 47°59' W 122°13'0 0.0
2016-Aug-20 05:33N 47°59' W 122°13'0 0.0
2016-Aug-20 04:33N 47°59' W 122°13'0 0.0
2016-Aug-20 03:33N 47°59' W 122°13'0 0.0
2016-Aug-20 02:34N 47°59' W 122°13'0 0.0
2016-Aug-20 01:33N 47°59' W 122°13'0 0.0
2016-Aug-20 00:34N 47°59' W 122°13'0 0.0
2016-Aug-19 23:33N 47°59' W 122°13'0 0.0
2016-Aug-19 22:33N 47°59' W 122°13'0 0.0
2016-Aug-19 21:34N 47°59' W 122°13'0 0.0
2016-Aug-19 20:33N 47°59' W 122°13'0 0.0
2016-Aug-19 19:33N 47°59' W 122°13'0 0.0
2016-Aug-19 18:34N 47°59' W 122°13'0 0.0
2016-Aug-19 17:34N 47°59' W 122°13'0 0.0
2016-Aug-19 16:34N 47°59' W 122°13'0 0.0
2016-Aug-19 15:33N 47°59' W 122°13'0 0.0
2016-Aug-19 14:34N 47°59' W 122°13'0 0.0
2016-Aug-19 13:34N 47°59' W 122°13'0 0.0
2016-Aug-19 12:34N 47°59' W 122°13'0 0.0
2016-Aug-19 11:34N 47°59' W 122°13'0 0.0
2016-Aug-19 10:34N 47°59' W 122°13'0 0.0
2016-Aug-19 09:34N 47°59' W 122°13'0 0.0
2016-Aug-19 08:34N 47°59' W 122°13'0 0.0
2016-Aug-19 07:33N 47°59' W 122°13'0 0.0
2016-Aug-19 06:34N 47°59' W 122°13'0 0.0
2016-Aug-19 05:33N 47°59' W 122°13'0 0.0
2016-Aug-19 04:34N 47°59' W 122°13'0 0.0
2016-Aug-19 03:34N 47°59' W 122°13'0 0.0
2016-Aug-19 02:34N 47°59' W 122°13'0 0.0
2016-Aug-19 01:34N 47°59' W 122°13'0 0.0
2016-Aug-19 00:34N 47°59' W 122°13'0 0.0
2016-Aug-18 23:34N 47°59' W 122°13'0 0.0
2016-Aug-18 22:33N 47°59' W 122°13'0 0.0
2016-Aug-18 21:34N 47°59' W 122°13'0 0.0
2016-Aug-18 20:33N 47°59' W 122°13'0 0.0
2016-Aug-18 19:34N 47°59' W 122°13'0 0.0
2016-Aug-18 18:32N 47°59' W 122°13'0 0.0
2016-Aug-18 17:33N 47°59' W 122°13'0 0.0
2016-Aug-18 16:33N 47°59' W 122°13'0 0.0
2016-Aug-18 15:33N 47°59' W 122°13'0 0.0
2016-Aug-18 14:16N 47°59' W 122°13'0 0.0
2016-Aug-18 13:33N 47°59' W 122°13'0 0.0
2016-Aug-18 12:33N 47°59' W 122°13'0 0.0
2016-Aug-18 11:33N 47°59' W 122°13'0 0.0
2016-Aug-18 10:33N 47°59' W 122°13'0 0.0
2016-Aug-18 09:33N 47°59' W 122°13'0 0.0
2016-Aug-18 08:33N 47°59' W 122°13'0 0.0
2016-Aug-18 07:34N 47°59' W 122°13'0 0.0
2016-Aug-18 06:33N 47°59' W 122°13'0 0.0
2016-Aug-18 05:34N 47°59' W 122°13'0 0.0
2016-Aug-18 04:33N 47°59' W 122°13'0 0.0
2016-Aug-18 03:33N 47°59' W 122°13'0 0.0
2016-Aug-18 02:33N 47°59' W 122°13'3 1.5
2016-Aug-18 00:28N 48°02' W 122°12'0 0.5
2016-Aug-17 23:33N 48°02' W 122°11'0 0.1
2016-Aug-17 22:20N 48°02' W 122°11'0 0.0
2016-Aug-17 11:33N 48°02' W 122°11'0 0.0
2016-Aug-17 10:33N 48°02' W 122°11'0 0.0
2016-Aug-17 09:33N 48°02' W 122°11'0 0.0
2016-Aug-17 08:13N 48°02' W 122°11'0 0.0
2016-Aug-17 07:32N 48°02' W 122°11'0 0.0
2016-Aug-17 06:33N 48°02' W 122°11'0 0.0
2016-Aug-17 02:33N 48°02' W 122°11'0 0.0
2016-Aug-17 01:14N 48°02' W 122°11'0 0.0
2016-Aug-17 00:33N 48°02' W 122°11'0 0.0
2016-Aug-16 23:33N 48°02' W 122°11'0 0.0
2016-Aug-16 22:33N 48°02' W 122°11'0 0.0
2016-Aug-16 14:13N 48°02' W 122°11'0 0.0
2016-Aug-16 13:24N 48°02' W 122°11'0 0.0
2016-Aug-16 08:28N 48°02' W 122°11'0 0.0
2016-Aug-16 07:32N 48°02' W 122°11'0 0.0
2016-Aug-16 04:33N 48°02' W 122°11'0 0.0
2016-Aug-16 02:28N 48°02' W 122°11'0 0.0
2016-Aug-16 01:33N 48°02' W 122°11'0 0.0
2016-Aug-16 00:33N 48°02' W 122°11'0 0.0
2016-Aug-15 23:33N 48°02' W 122°11'0 0.0
2016-Aug-15 22:24N 48°02' W 122°11'0 0.0
2016-Aug-15 21:32N 48°02' W 122°11'  
Track history (hours):
 
Tides and Currents Weather Stations Pressure Air Temp Water Temp Dewpoint Dewpoint Depression Visibility Wind Speed Wind Dir Waves Ship Positions

Swinomish

Owner: DUNLAP TOWING CO, LA CONNER, WA. More information available from US FCC via Universal Licensing System and Coast Guard Vessel Documentation Center.

Last reported at 2016-Aug-25 18:06 UTC. Time now 2016-Aug-25 20:11 UTC.
Position N 48°24' W 122°30'.

Length 15 m; draft 3.5 m.

Type: Tug. MMSI: 366972050.

Date/timePositionNaut miles runAvg speedWind from/ knotsBaromVisibWave heightAir tempDewpointWater temp
2016-Aug-25 18:06N 48°24' W 122°30'0 0.0
2016-Aug-25 17:21N 48°24' W 122°30'0 0.0
2016-Aug-25 16:32N 48°24' W 122°30'0 0.0
2016-Aug-25 15:34N 48°24' W 122°30'0 0.0
2016-Aug-25 14:34N 48°24' W 122°30'0 0.0
2016-Aug-25 13:33N 48°24' W 122°30'0 0.0
2016-Aug-25 12:32N 48°24' W 122°30'0 0.0
2016-Aug-25 11:32N 48°24' W 122°30'0 0.0
2016-Aug-25 10:34N 48°24' W 122°30'0 0.0
2016-Aug-25 09:33N 48°24' W 122°30'0 0.0
2016-Aug-25 07:33N 48°24' W 122°30'0 0.0
2016-Aug-25 04:06N 48°24' W 122°30'0 0.0
2016-Aug-25 03:33N 48°24' W 122°30'0 0.0
2016-Aug-25 02:31N 48°24' W 122°30'0 0.0
2016-Aug-25 01:34N 48°24' W 122°30'0 0.0
2016-Aug-25 00:30N 48°24' W 122°30'1 1.3
2016-Aug-24 23:33N 48°23' W 122°30'4 3.8
2016-Aug-24 22:32N 48°19' W 122°30'8 7.3
2016-Aug-24 21:23N 48°11' W 122°33'7 7.2
2016-Aug-24 20:25N 48°05' W 122°27'7 7.6
2016-Aug-24 19:30N 48°01' W 122°18'4 4.1
2016-Aug-24 18:33N 47°59' W 122°13'0 0.0
2016-Aug-24 17:34N 47°59' W 122°13'0 0.0
2016-Aug-24 16:34N 47°59' W 122°13'0 0.0
2016-Aug-24 15:34N 47°59' W 122°13'0 0.0
2016-Aug-24 14:34N 47°59' W 122°13'0 0.0
2016-Aug-24 13:34N 47°59' W 122°13'0 0.0
2016-Aug-24 12:33N 47°59' W 122°13'0 0.0
2016-Aug-24 11:34N 47°59' W 122°13'0 0.0
2016-Aug-24 10:34N 47°59' W 122°13'0 0.0
2016-Aug-24 09:34N 47°59' W 122°13'0 0.0
2016-Aug-24 08:34N 47°59' W 122°13'0 0.0
2016-Aug-24 07:34N 47°59' W 122°13'0 0.0
2016-Aug-24 06:34N 47°59' W 122°13'0 0.0
2016-Aug-24 04:33N 47°59' W 122°13'0 0.0
2016-Aug-24 03:33N 47°59' W 122°13'0 0.0
2016-Aug-24 02:34N 47°59' W 122°13'0 0.0
2016-Aug-24 01:34N 47°59' W 122°13'0 0.0
2016-Aug-24 00:33N 47°59' W 122°13'0 0.0
2016-Aug-23 23:33N 47°59' W 122°13'0 0.0
2016-Aug-23 22:34N 47°59' W 122°13'0 0.0
2016-Aug-23 21:33N 47°59' W 122°13'0 0.0
2016-Aug-23 20:33N 47°59' W 122°13'0 0.0
2016-Aug-23 19:33N 47°59' W 122°13'0 0.0
2016-Aug-23 18:34N 47°59' W 122°13'0 0.0
2016-Aug-23 17:33N 47°59' W 122°13'0 0.0
2016-Aug-23 16:33N 47°59' W 122°13'0 0.0
2016-Aug-23 15:33N 47°59' W 122°13'0 0.0
2016-Aug-23 14:33N 47°59' W 122°13'0 0.0
2016-Aug-23 13:33N 47°59' W 122°13'0 0.0
2016-Aug-23 12:31N 47°59' W 122°13'0 0.0
2016-Aug-23 11:33N 47°59' W 122°13'0 0.0
2016-Aug-23 10:34N 47°59' W 122°13'0 0.0
2016-Aug-23 09:33N 47°59' W 122°13'0 0.0
2016-Aug-23 08:33N 47°59' W 122°13'0 0.0
2016-Aug-23 07:34N 47°59' W 122°13'0 0.0
2016-Aug-23 06:33N 47°59' W 122°13'0 0.0
2016-Aug-23 05:33N 47°59' W 122°13'0 0.0
2016-Aug-23 04:34N 47°59' W 122°13'0 0.0
2016-Aug-23 03:33N 47°59' W 122°13'0 0.0
2016-Aug-23 02:33N 47°59' W 122°13'0 0.0
2016-Aug-23 01:33N 47°59' W 122°13'0 0.0
2016-Aug-23 00:31N 47°59' W 122°13'0 0.0
2016-Aug-22 23:34N 47°59' W 122°13'0 0.0
2016-Aug-22 22:34N 47°59' W 122°13'0 0.0
2016-Aug-22 21:34N 47°59' W 122°13'0 0.0
2016-Aug-22 20:33N 47°59' W 122°13'0 0.0
2016-Aug-22 19:33N 47°59' W 122°13'0 0.0
2016-Aug-22 18:33N 47°59' W 122°13'0 0.0
2016-Aug-22 17:33N 47°59' W 122°13'0 0.0
2016-Aug-22 16:33N 47°59' W 122°13'0 0.0
2016-Aug-22 15:33N 47°59' W 122°13'0 0.0
2016-Aug-22 14:33N 47°59' W 122°13'0 0.0
2016-Aug-22 13:34N 47°59' W 122°13'0 0.0
2016-Aug-22 12:33N 47°59' W 122°13'0 0.0
2016-Aug-22 11:33N 47°59' W 122°13'0 0.0
2016-Aug-22 10:33N 47°59' W 122°13'0 0.0
2016-Aug-22 09:33N 47°59' W 122°13'0 0.0
2016-Aug-22 08:33N 47°59' W 122°13'0 0.0
2016-Aug-22 07:34N 47°59' W 122°13'0 0.0
2016-Aug-22 06:34N 47°59' W 122°13'0 0.0
2016-Aug-22 05:33N 47°59' W 122°13'0 0.0
2016-Aug-22 04:34N 47°59' W 122°13'0 0.0
2016-Aug-22 03:34N 47°59' W 122°13'0 0.0
2016-Aug-22 02:33N 47°59' W 122°13'0 0.0
2016-Aug-22 01:33N 47°59' W 122°13'0 0.0
2016-Aug-22 00:34N 47°59' W 122°13'0 0.0
2016-Aug-21 23:33N 47°59' W 122°13'0 0.0
2016-Aug-21 22:33N 47°59' W 122°13'0 0.0
2016-Aug-21 21:34N 47°59' W 122°13'0 0.0
2016-Aug-21 20:33N 47°59' W 122°13'0 0.0
2016-Aug-21 19:34N 47°59' W 122°13'0 0.0
2016-Aug-21 18:34N 47°59' W 122°13'0 0.0
2016-Aug-21 17:34N 47°59' W 122°13'0 0.0
2016-Aug-21 16:33N 47°59' W 122°13'0 0.0
2016-Aug-21 15:34N 47°59' W 122°13'0 0.0
2016-Aug-21 14:33N 47°59' W 122°13'0 0.0
2016-Aug-21 13:34N 47°59' W 122°13'0 0.0
2016-Aug-21 12:34N 47°59' W 122°13'0 0.0
2016-Aug-21 11:33N 47°59' W 122°13'0 0.0
2016-Aug-21 10:33N 47°59' W 122°13'0 0.0
2016-Aug-21 09:33N 47°59' W 122°13'0 0.0
2016-Aug-21 08:34N 47°59' W 122°13'0 0.0
2016-Aug-21 07:34N 47°59' W 122°13'0 0.0
2016-Aug-21 06:34N 47°59' W 122°13'0 0.0
2016-Aug-21 05:34N 47°59' W 122°13'0 0.0
2016-Aug-21 04:33N 47°59' W 122°13'0 0.0
2016-Aug-21 03:34N 47°59' W 122°13'0 0.0
2016-Aug-21 02:33N 47°59' W 122°13'0 0.0
2016-Aug-21 01:33N 47°59' W 122°13'0 0.0
2016-Aug-21 00:34N 47°59' W 122°13'0 0.0
2016-Aug-20 23:34N 47°59' W 122°13'0 0.0
2016-Aug-20 22:34N 47°59' W 122°13'0 0.0
2016-Aug-20 21:34N 47°59' W 122°13'0 0.0
2016-Aug-20 20:34N 47°59' W 122°13'0 0.0
2016-Aug-20 19:33N 47°59' W 122°13'0 0.0
2016-Aug-20 18:34N 47°59' W 122°13'0 0.0
2016-Aug-20 17:34N 47°59' W 122°13'0 0.0
2016-Aug-20 16:33N 47°59' W 122°13'0 0.0
2016-Aug-20 15:34N 47°59' W 122°13'0 0.0
2016-Aug-20 14:33N 47°59' W 122°13'0 0.0
2016-Aug-20 13:33N 47°59' W 122°13'0 0.0
2016-Aug-20 12:34N 47°59' W 122°13'0 0.0
2016-Aug-20 11:33N 47°59' W 122°13'0 0.0
2016-Aug-20 10:34N 47°59' W 122°13'0 0.0
2016-Aug-20 09:33N 47°59' W 122°13'0 0.0
2016-Aug-20 08:33N 47°59' W 122°13'0 0.0
2016-Aug-20 07:34N 47°59' W 122°13'0 0.0
2016-Aug-20 06:33N 47°59' W 122°13'0 0.0
2016-Aug-20 05:33N 47°59' W 122°13'0 0.0
2016-Aug-20 04:33N 47°59' W 122°13'0 0.0
2016-Aug-20 03:33N 47°59' W 122°13'0 0.0
2016-Aug-20 02:34N 47°59' W 122°13'0 0.0
2016-Aug-20 01:33N 47°59' W 122°13'0 0.0
2016-Aug-20 00:34N 47°59' W 122°13'0 0.0
2016-Aug-19 23:33N 47°59' W 122°13'0 0.0
2016-Aug-19 22:33N 47°59' W 122°13'0 0.0
2016-Aug-19 21:34N 47°59' W 122°13'0 0.0
2016-Aug-19 20:33N 47°59' W 122°13'0 0.0
2016-Aug-19 19:33N 47°59' W 122°13'0 0.0
2016-Aug-19 18:34N 47°59' W 122°13'0 0.0
2016-Aug-19 17:34N 47°59' W 122°13'0 0.0
2016-Aug-19 16:34N 47°59' W 122°13'0 0.0
2016-Aug-19 15:33N 47°59' W 122°13'0 0.0
2016-Aug-19 14:34N 47°59' W 122°13'0 0.0
2016-Aug-19 13:34N 47°59' W 122°13'0 0.0
2016-Aug-19 12:34N 47°59' W 122°13'0 0.0
2016-Aug-19 11:34N 47°59' W 122°13'0 0.0
2016-Aug-19 10:34N 47°59' W 122°13'0 0.0
2016-Aug-19 09:34N 47°59' W 122°13'0 0.0
2016-Aug-19 08:34N 47°59' W 122°13'0 0.0
2016-Aug-19 07:33N 47°59' W 122°13'0 0.0
2016-Aug-19 06:34N 47°59' W 122°13'0 0.0
2016-Aug-19 05:33N 47°59' W 122°13'0 0.0
2016-Aug-19 04:34N 47°59' W 122°13'0 0.0
2016-Aug-19 03:34N 47°59' W 122°13'0 0.0
2016-Aug-19 02:34N 47°59' W 122°13'0 0.0
2016-Aug-19 01:34N 47°59' W 122°13'0 0.0
2016-Aug-19 00:34N 47°59' W 122°13'0 0.0
2016-Aug-18 23:34N 47°59' W 122°13'0 0.0
2016-Aug-18 22:33N 47°59' W 122°13'0 0.0
2016-Aug-18 21:34N 47°59' W 122°13'0 0.0
2016-Aug-18 20:33N 47°59' W 122°13'0 0.0
2016-Aug-18 19:34N 47°59' W 122°13'0 0.0
2016-Aug-18 18:32N 47°59' W 122°13'0 0.0
2016-Aug-18 17:33N 47°59' W 122°13'0 0.0
2016-Aug-18 16:33N 47°59' W 122°13'0 0.0
2016-Aug-18 15:33N 47°59' W 122°13'0 0.0
2016-Aug-18 14:16N 47°59' W 122°13'0 0.0
2016-Aug-18 13:33N 47°59' W 122°13'0 0.0
2016-Aug-18 12:33N 47°59' W 122°13'0 0.0
2016-Aug-18 11:33N 47°59' W 122°13'0 0.0
2016-Aug-18 10:33N 47°59' W 122°13'0 0.0
2016-Aug-18 09:33N 47°59' W 122°13'0 0.0
2016-Aug-18 08:33N 47°59' W 122°13'0 0.0
2016-Aug-18 07:34N 47°59' W 122°13'0 0.0
2016-Aug-18 06:33N 47°59' W 122°13'0 0.0
2016-Aug-18 05:34N 47°59' W 122°13'0 0.0
2016-Aug-18 04:33N 47°59' W 122°13'0 0.0
2016-Aug-18 03:33N 47°59' W 122°13'0 0.0
2016-Aug-18 02:33N 47°59' W 122°13'3 1.5
2016-Aug-18 00:28N 48°02' W 122°12'0 0.5
2016-Aug-17 23:33N 48°02' W 122°11'0 0.1
2016-Aug-17 22:20N 48°02' W 122°11'0 0.0
2016-Aug-17 11:33N 48°02' W 122°11'0 0.0
2016-Aug-17 10:33N 48°02' W 122°11'0 0.0
2016-Aug-17 09:33N 48°02' W 122°11'0 0.0
2016-Aug-17 08:13N 48°02' W 122°11'0 0.0
2016-Aug-17 07:32N 48°02' W 122°11'0 0.0
2016-Aug-17 06:33N 48°02' W 122°11'0 0.0
2016-Aug-17 02:33N 48°02' W 122°11'0 0.0
2016-Aug-17 01:14N 48°02' W 122°11'0 0.0
2016-Aug-17 00:33N 48°02' W 122°11'0 0.0
2016-Aug-16 23:33N 48°02' W 122°11'0 0.0
2016-Aug-16 22:33N 48°02' W 122°11'0 0.0
2016-Aug-16 14:13N 48°02' W 122°11'0 0.0
2016-Aug-16 13:24N 48°02' W 122°11'0 0.0
2016-Aug-16 08:28N 48°02' W 122°11'0 0.0
2016-Aug-16 07:32N 48°02' W 122°11'0 0.0
2016-Aug-16 04:33N 48°02' W 122°11'0 0.0
2016-Aug-16 02:28N 48°02' W 122°11'0 0.0
2016-Aug-16 01:33N 48°02' W 122°11'0 0.0
2016-Aug-16 00:33N 48°02' W 122°11'0 0.0
2016-Aug-15 23:33N 48°02' W 122°11'0 0.0
2016-Aug-15 22:24N 48°02' W 122°11'0 0.0
2016-Aug-15 21:32N 48°02' W 122°11'  

Dump ship's entire track history